createdAt,value
2023-05-05T00:01:09.264Z,100353.84
2023-05-05T00:03:36.204Z,100356.16
2023-05-05T00:06:03.481Z,100355.91
2023-05-05T00:08:30.101Z,100354.75
2023-05-05T00:10:57.766Z,100351.28
2023-05-05T00:13:24.398Z,100350.53
2023-05-05T00:15:53.552Z,100356.00
2023-05-05T00:18:20.516Z,100353.16
2023-05-05T00:20:47.625Z,100355.97
2023-05-05T00:23:15.279Z,100355.13
2023-05-05T00:25:42.057Z,100351.19
2023-05-05T00:28:09.019Z,100350.97
2023-05-05T00:30:37.182Z,100352.22
2023-05-05T00:33:04.280Z,100353.44
2023-05-05T00:35:30.991Z,100355.16
2023-05-05T00:37:58.072Z,100354.63
2023-05-05T00:40:25.299Z,100359.13
2023-05-05T00:42:52.076Z,100346.41
2023-05-05T00:45:20.086Z,100352.72
2023-05-05T00:47:48.830Z,100351.59
2023-05-05T00:50:25.699Z,100355.16
2023-05-05T00:53:00.273Z,100354.41
2023-05-05T00:55:28.611Z,100349.84
2023-05-05T00:57:56.950Z,100348.16
2023-05-05T01:00:23.886Z,100346.94
2023-05-05T01:02:51.875Z,100346.94
2023-05-05T01:05:19.978Z,100344.38
2023-05-05T01:08:16.090Z,100350.03
2023-05-05T01:10:48.142Z,100333.69
2023-05-05T01:13:32.140Z,100335.75
2023-05-05T01:16:27.314Z,100328.16
2023-05-05T01:19:19.016Z,100321.38
2023-05-05T01:21:49.998Z,100315.84
2023-05-05T01:24:34.912Z,100307.00
2023-05-05T01:27:38.795Z,100304.47
2023-05-05T01:30:17.460Z,100305.41
2023-05-05T01:33:08.287Z,100309.09
2023-05-05T01:35:58.536Z,100314.63
2023-05-05T01:38:46.660Z,100331.09
2023-05-05T01:41:47.095Z,100329.41
2023-05-05T01:44:36.827Z,100328.81
2023-05-05T01:47:24.783Z,100335.28
2023-05-05T01:49:52.608Z,100335.03
2023-05-05T01:52:20.480Z,100351.94
2023-05-05T01:54:49.785Z,100349.94
2023-05-05T01:57:17.518Z,100344.25
2023-05-05T01:59:43.998Z,100360.88
2023-05-05T02:02:12.006Z,100367.34
2023-05-05T02:04:43.447Z,100370.31
2023-05-05T02:07:12.776Z,100377.66
2023-05-05T02:09:40.641Z,100375.13
2023-05-05T02:12:08.578Z,100366.72
2023-05-05T02:14:36.875Z,100372.94
2023-05-05T02:17:03.909Z,100374.97
2023-05-05T02:19:39.587Z,100377.59
2023-05-05T02:22:06.597Z,100380.09
2023-05-05T02:24:33.643Z,100380.94
2023-05-05T02:27:03.692Z,100392.25
2023-05-05T02:29:35.659Z,100388.94
2023-05-05T02:32:06.914Z,100394.41
2023-05-05T02:34:39.763Z,100391.03
2023-05-05T02:37:12.444Z,100396.66
2023-05-05T02:39:45.126Z,100390.81
2023-05-05T02:42:19.837Z,100399.78
2023-05-05T02:44:51.867Z,100388.34
2023-05-05T02:47:20.909Z,100385.72
2023-05-05T02:49:48.848Z,100388.44
2023-05-05T02:52:15.424Z,100386.72
2023-05-05T02:54:43.663Z,100378.53
2023-05-05T02:57:19.465Z,100371.72
2023-05-05T03:00:05.610Z,100375.81
2023-05-05T03:02:52.204Z,100377.25
2023-05-05T03:05:22.601Z,100375.03
2023-05-05T03:08:00.437Z,100378.44
2023-05-05T03:10:31.169Z,100379.72
2023-05-05T03:13:02.901Z,100379.63
2023-05-05T03:15:52.127Z,100379.81
2023-05-05T03:18:24.391Z,100387.44
2023-05-05T03:20:58.286Z,100384.13
2023-05-05T03:23:24.824Z,100390.78
2023-05-05T03:25:56.809Z,100386.47
2023-05-05T03:28:30.979Z,100388.53
2023-05-05T03:31:01.108Z,100387.75
2023-05-05T03:33:27.917Z,100393.94
2023-05-05T03:35:57.463Z,100387.94
2023-05-05T03:38:23.968Z,100385.91
2023-05-05T03:40:50.893Z,100388.22
2023-05-05T03:43:20.544Z,100393.25
2023-05-05T03:45:47.462Z,100389.06
2023-05-05T03:48:13.994Z,100392.91
2023-05-05T03:50:45.041Z,100406.97
2023-05-05T03:53:12.653Z,100407.34
2023-05-05T03:55:39.507Z,100418.09
2023-05-05T03:58:06.631Z,100413.53
2023-05-05T04:00:33.193Z,100414.38
2023-05-05T04:02:59.978Z,100411.81
2023-05-05T04:05:26.886Z,100413.00
2023-05-05T04:07:53.858Z,100421.88
2023-05-05T04:10:21.379Z,100423.81
2023-05-05T04:12:48.281Z,100419.16
2023-05-05T04:15:14.862Z,100408.94
2023-05-05T04:17:41.714Z,100414.56
2023-05-05T04:20:09.531Z,100419.47
2023-05-05T04:22:36.982Z,100418.97
2023-05-05T04:25:04.605Z,100407.09
2023-05-05T04:27:31.533Z,100412.34
2023-05-05T04:29:59.365Z,100403.16
2023-05-05T04:32:26.170Z,100402.88
2023-05-05T04:34:53.447Z,100408.22
2023-05-05T04:37:21.717Z,100420.25
2023-05-05T04:39:48.433Z,100435.22
2023-05-05T04:42:15.080Z,100430.50
2023-05-05T04:44:41.734Z,100430.59
2023-05-05T04:47:08.683Z,100438.31
2023-05-05T04:49:35.869Z,100437.63
2023-05-05T04:52:02.566Z,100443.56
2023-05-05T04:54:29.321Z,100448.03
2023-05-05T04:56:55.829Z,100454.81
2023-05-05T04:59:22.399Z,100452.75
2023-05-05T05:01:49.056Z,100450.88
2023-05-05T05:04:18.575Z,100446.56
2023-05-05T05:06:45.977Z,100442.81
2023-05-05T05:09:13.208Z,100443.44
2023-05-05T05:11:39.854Z,100443.81
2023-05-05T05:14:06.908Z,100450.88
2023-05-05T05:16:33.592Z,100454.00
2023-05-05T05:19:01.606Z,100450.16
2023-05-05T05:21:31.565Z,100455.50
2023-05-05T05:23:58.929Z,100456.56
2023-05-05T05:26:26.973Z,100465.78
2023-05-05T05:28:53.522Z,100462.66
2023-05-05T05:31:20.445Z,100464.97
2023-05-05T05:33:47.148Z,100459.78
2023-05-05T05:36:14.779Z,100459.00
2023-05-05T05:38:41.746Z,100459.50
2023-05-05T05:41:08.899Z,100467.72
2023-05-05T05:43:37.309Z,100462.00
2023-05-05T05:46:06.890Z,100467.09
2023-05-05T05:48:34.988Z,100463.44
2023-05-05T05:51:02.533Z,100470.09
2023-05-05T05:53:29.731Z,100479.22
2023-05-05T05:55:56.466Z,100478.88
2023-05-05T05:58:23.676Z,100476.25
2023-05-05T06:00:50.311Z,100473.19
2023-05-05T06:03:17.206Z,100478.56
2023-05-05T06:05:45.811Z,100483.09
2023-05-05T06:08:13.826Z,100491.59
2023-05-05T06:10:45.407Z,100480.94
2023-05-05T06:13:15.742Z,100482.75
2023-05-05T06:15:46.318Z,100494.88
2023-05-05T06:18:14.064Z,100482.56
2023-05-05T06:20:41.083Z,100484.91
2023-05-05T06:23:07.700Z,100483.59
2023-05-05T06:25:37.701Z,100489.34
2023-05-05T06:28:05.466Z,100475.69
2023-05-05T06:30:32.842Z,100484.50
2023-05-05T06:32:59.711Z,100488.81
2023-05-05T06:35:26.385Z,100486.44
2023-05-05T06:37:53.087Z,100490.66
2023-05-05T06:40:19.552Z,100488.97
2023-05-05T06:42:46.255Z,100496.13
2023-05-05T06:45:17.610Z,100489.16
2023-05-05T06:47:44.603Z,100487.09
2023-05-05T06:50:11.547Z,100489.47
2023-05-05T06:52:38.231Z,100492.13
2023-05-05T06:55:04.978Z,100487.06
2023-05-05T06:57:31.569Z,100490.25
2023-05-05T06:59:58.110Z,100489.19
2023-05-05T07:02:26.708Z,100492.69
2023-05-05T07:04:55.440Z,100498.53
2023-05-05T07:07:22.339Z,100495.56
2023-05-05T07:09:49.064Z,100503.72
2023-05-05T07:12:15.495Z,100494.00
2023-05-05T07:14:42.275Z,100504.44
2023-05-05T07:17:08.812Z,100495.91
2023-05-05T07:19:35.496Z,100504.56
2023-05-05T07:22:02.057Z,100495.47
2023-05-05T07:24:28.572Z,100496.09
2023-05-05T07:26:55.748Z,100504.44
2023-05-05T07:29:22.189Z,100509.00
2023-05-05T07:31:49.032Z,100507.63
2023-05-05T07:34:15.590Z,100501.88
2023-05-05T07:36:42.207Z,100500.59
2023-05-05T07:39:08.700Z,100496.47
2023-05-05T07:41:35.461Z,100492.41
2023-05-05T07:44:02.023Z,100498.53
2023-05-05T07:46:28.830Z,100499.56
2023-05-05T07:48:55.480Z,100496.41
2023-05-05T07:51:22.280Z,100496.63
2023-05-05T07:53:48.887Z,100496.66
2023-05-05T07:56:15.733Z,100497.94
2023-05-05T07:58:42.210Z,100495.56
2023-05-05T08:01:11.044Z,100499.41
2023-05-05T08:03:37.807Z,100502.00
2023-05-05T08:06:10.580Z,100500.47
2023-05-05T08:08:37.734Z,100495.56
2023-05-05T08:11:04.288Z,100493.31
2023-05-05T08:13:31.120Z,100492.22
2023-05-05T08:15:57.761Z,100484.47
2023-05-05T08:18:24.700Z,100489.59
2023-05-05T08:20:51.973Z,100492.44
2023-05-05T08:23:18.697Z,100487.59
2023-05-05T08:25:45.278Z,100485.78
2023-05-05T08:28:11.720Z,100482.25
2023-05-05T08:30:38.780Z,100479.56
2023-05-05T08:33:05.585Z,100482.44
2023-05-05T08:35:32.265Z,100482.97
2023-05-05T08:37:59.236Z,100475.69
2023-05-05T08:40:31.923Z,100466.59
2023-05-05T08:42:59.055Z,100471.50
2023-05-05T08:45:27.863Z,100474.59
2023-05-05T08:48:00.473Z,100474.03
2023-05-05T08:50:29.220Z,100474.91
2023-05-05T08:53:12.865Z,100477.00
2023-05-05T08:55:52.368Z,100478.44
2023-05-05T08:58:19.502Z,100479.75
2023-05-05T09:00:46.637Z,100479.97
2023-05-05T09:03:13.390Z,100470.84
2023-05-05T09:05:42.244Z,100465.84
2023-05-05T09:08:10.963Z,100470.28
2023-05-05T09:10:41.019Z,100474.50
2023-05-05T09:13:07.528Z,100469.44
2023-05-05T09:15:34.673Z,100467.78
2023-05-05T09:18:01.804Z,100461.72
2023-05-05T09:20:36.588Z,100467.09
2023-05-05T09:23:11.472Z,100461.59
2023-05-05T09:25:38.605Z,100454.53
2023-05-05T09:28:16.388Z,100461.09
2023-05-05T09:30:44.874Z,100453.78
2023-05-05T09:33:12.473Z,100454.94
2023-05-05T09:35:53.663Z,100443.84
2023-05-05T09:38:21.416Z,100436.50
2023-05-05T09:40:49.944Z,100433.47
2023-05-05T09:43:18.054Z,100447.22
2023-05-05T09:45:44.961Z,100439.91
2023-05-05T09:48:28.692Z,100436.94
2023-05-05T09:50:56.921Z,100428.84
2023-05-05T09:53:25.447Z,100435.00
2023-05-05T09:55:56.271Z,100436.19
2023-05-05T09:58:25.930Z,100423.56
2023-05-05T10:00:53.613Z,100431.06
2023-05-05T10:03:20.798Z,100432.34
2023-05-05T10:05:55.753Z,100425.63
2023-05-05T10:08:25.304Z,100432.47
2023-05-05T10:10:54.144Z,100425.34
2023-05-05T10:13:23.223Z,100421.53
2023-05-05T10:15:51.835Z,100426.41
2023-05-05T10:18:22.522Z,100426.28
2023-05-05T10:21:02.286Z,100435.03
2023-05-05T10:23:37.983Z,100418.56
2023-05-05T10:26:11.697Z,100427.75
2023-05-05T10:28:44.831Z,100425.38
2023-05-05T10:31:25.633Z,100422.81
2023-05-05T10:34:15.397Z,100415.75
2023-05-05T10:36:42.937Z,100417.66
2023-05-05T10:39:10.804Z,100410.81
2023-05-05T10:41:37.989Z,100414.00
2023-05-05T10:44:05.810Z,100414.75
2023-05-05T10:46:32.680Z,100408.91
2023-05-05T10:49:24.415Z,100394.59
2023-05-05T10:52:21.617Z,100401.75
2023-05-05T10:55:13.715Z,100407.84
2023-05-05T10:57:42.685Z,100404.91
2023-05-05T11:00:10.254Z,100393.91
2023-05-05T11:02:37.549Z,100400.06
2023-05-05T11:05:23.090Z,100399.31
2023-05-05T11:07:52.969Z,100401.69
2023-05-05T11:10:21.123Z,100394.66
2023-05-05T11:12:54.106Z,100392.06
2023-05-05T11:15:23.720Z,100392.56
2023-05-05T11:17:50.677Z,100397.19
2023-05-05T11:20:17.718Z,100394.72
2023-05-05T11:23:21.469Z,100386.41
2023-05-05T11:25:48.236Z,100378.94
2023-05-05T11:28:17.040Z,100375.31
2023-05-05T11:30:56.402Z,100372.16
2023-05-05T11:33:30.683Z,100369.06
2023-05-05T11:36:08.609Z,100380.06
2023-05-05T11:38:55.584Z,100369.69
2023-05-05T11:41:34.356Z,100362.88
2023-05-05T11:44:17.496Z,100365.41
2023-05-05T11:46:56.007Z,100362.09
2023-05-05T11:49:33.972Z,100359.06
2023-05-05T11:52:07.979Z,100354.72
2023-05-05T11:54:35.906Z,100352.56
2023-05-05T11:57:07.444Z,100358.63
2023-05-05T11:59:37.412Z,100358.66
2023-05-05T12:02:04.591Z,100362.25
2023-05-05T12:04:31.785Z,100339.28
2023-05-05T12:06:59.866Z,100341.66
2023-05-05T12:09:27.204Z,100345.50
2023-05-05T12:11:56.026Z,100336.91
2023-05-05T12:14:23.890Z,100332.53
2023-05-05T12:17:09.108Z,100324.66
2023-05-05T12:19:36.148Z,100328.63
2023-05-05T12:22:04.304Z,100331.94
2023-05-05T12:24:30.963Z,100329.41
2023-05-05T12:27:11.700Z,100312.81
2023-05-05T12:29:38.220Z,100322.69
2023-05-05T12:32:05.276Z,100324.44
2023-05-05T12:34:32.284Z,100321.56
2023-05-05T12:36:58.993Z,100319.97
2023-05-05T12:39:36.342Z,100326.75
2023-05-05T12:42:04.416Z,100319.44
2023-05-05T12:44:38.234Z,100313.78
2023-05-05T12:47:05.353Z,100311.56
2023-05-05T12:49:34.905Z,100306.78
2023-05-05T12:52:01.507Z,100305.59
2023-05-05T12:54:29.680Z,100301.09
2023-05-05T12:56:59.757Z,100300.25
2023-05-05T12:59:27.452Z,100295.75
2023-05-05T13:02:01.561Z,100290.25
2023-05-05T13:04:28.935Z,100284.13
2023-05-05T13:07:10.654Z,100289.22
2023-05-05T13:09:37.399Z,100297.41
2023-05-05T13:12:04.687Z,100271.66
2023-05-05T13:14:31.850Z,100275.81
2023-05-05T13:16:58.792Z,100268.84
2023-05-05T13:19:25.362Z,100273.31
2023-05-05T13:21:56.607Z,100277.63
2023-05-05T13:24:38.051Z,100276.88
2023-05-05T13:27:10.035Z,100269.84
2023-05-05T13:29:42.090Z,100269.75
2023-05-05T13:32:08.630Z,100263.13
2023-05-05T13:34:35.360Z,100253.91
2023-05-05T13:37:02.042Z,100247.66
2023-05-05T13:39:30.965Z,100245.47
2023-05-05T13:41:57.530Z,100264.63
2023-05-05T13:44:24.298Z,100254.34
2023-05-05T13:46:52.898Z,100253.88
2023-05-05T13:49:20.126Z,100251.94
2023-05-05T13:51:48.632Z,100249.09
2023-05-05T13:54:15.313Z,100244.41
2023-05-05T13:56:41.966Z,100250.25
2023-05-05T13:59:09.212Z,100251.09
2023-05-05T14:01:35.916Z,100250.59
2023-05-05T14:04:05.099Z,100247.78
2023-05-05T14:06:32.728Z,100240.59
2023-05-05T14:08:59.683Z,100248.72
2023-05-05T14:11:26.157Z,100234.88
2023-05-05T14:13:52.708Z,100237.09
2023-05-05T14:16:19.246Z,100229.13
2023-05-05T14:18:45.748Z,100230.81
2023-05-05T14:21:12.504Z,100238.34
2023-05-05T14:23:39.226Z,100229.81
2023-05-05T14:26:05.933Z,100225.56
2023-05-05T14:28:32.502Z,100228.53
2023-05-05T14:30:59.073Z,100215.56
2023-05-05T14:33:25.909Z,100221.19
2023-05-05T14:35:52.651Z,100217.28
2023-05-05T14:38:19.237Z,100221.00
2023-05-05T14:40:45.977Z,100216.81
2023-05-05T14:43:12.490Z,100224.38
2023-05-05T14:45:39.347Z,100221.47
2023-05-05T14:48:05.974Z,100223.34
2023-05-05T14:50:32.402Z,100226.97
2023-05-05T14:52:59.125Z,100228.63
2023-05-05T14:55:26.207Z,100225.72
2023-05-05T14:57:52.810Z,100227.31
2023-05-05T15:00:22.473Z,100224.03
2023-05-05T15:02:49.188Z,100224.78
2023-05-05T15:05:16.002Z,100227.16
2023-05-05T15:07:42.743Z,100225.75
2023-05-05T15:10:09.677Z,100215.28
2023-05-05T15:12:36.349Z,100217.56
2023-05-05T15:15:03.436Z,100208.72
2023-05-05T15:17:30.828Z,100212.16
2023-05-05T15:19:57.515Z,100210.44
2023-05-05T15:22:24.105Z,100215.19
2023-05-05T15:24:50.532Z,100217.59
2023-05-05T15:27:18.263Z,100222.91
2023-05-05T15:29:44.981Z,100226.28
2023-05-05T15:32:11.606Z,100240.97
2023-05-05T15:34:38.127Z,100264.13
2023-05-05T15:37:04.810Z,100261.16
2023-05-05T15:39:31.360Z,100275.66
2023-05-05T15:41:59.630Z,100286.34
2023-05-05T15:44:26.456Z,100294.88
2023-05-05T15:46:52.951Z,100291.41
2023-05-05T15:49:19.514Z,100302.00
2023-05-05T15:51:47.492Z,100301.63
2023-05-05T15:54:14.688Z,100300.41
2023-05-05T15:56:41.243Z,100302.88
2023-05-05T15:59:08.009Z,100297.22
2023-05-05T16:01:36.174Z,100304.13
2023-05-05T16:04:03.660Z,100304.00
2023-05-05T16:06:30.416Z,100312.44
2023-05-05T16:08:58.562Z,100313.59
2023-05-05T16:11:28.457Z,100320.38
2023-05-05T16:13:55.203Z,100320.66
2023-05-05T16:16:21.820Z,100332.50
2023-05-05T16:18:48.705Z,100330.00
2023-05-05T16:21:15.371Z,100354.69
2023-05-05T16:23:41.980Z,100365.88
2023-05-05T16:26:08.498Z,100376.41
2023-05-05T16:28:35.014Z,100391.56
2023-05-05T16:31:02.290Z,100394.06
2023-05-05T16:33:29.325Z,100387.47
2023-05-05T16:35:55.977Z,100387.59
2023-05-05T16:38:22.894Z,100377.13
2023-05-05T16:40:49.629Z,100378.84
2023-05-05T16:43:16.191Z,100372.13
2023-05-05T16:45:43.609Z,100365.66
2023-05-05T16:48:10.497Z,100373.13
2023-05-05T16:50:37.079Z,100367.09
2023-05-05T16:53:03.641Z,100355.88
2023-05-05T16:55:30.206Z,100361.41
2023-05-05T16:57:56.905Z,100351.69
2023-05-05T17:00:23.627Z,100357.94
2023-05-05T17:02:50.170Z,100357.59
2023-05-05T17:05:17.762Z,100363.84
2023-05-05T17:07:44.534Z,100350.56
2023-05-05T17:10:11.243Z,100351.78
2023-05-05T17:12:37.785Z,100348.66
2023-05-05T17:15:04.940Z,100343.16
2023-05-05T17:17:31.744Z,100344.34
2023-05-05T17:19:58.276Z,100343.63
2023-05-05T17:22:25.105Z,100350.72
2023-05-05T17:24:51.837Z,100345.91
2023-05-05T17:27:18.467Z,100346.72
2023-05-05T17:29:45.223Z,100345.53
2023-05-05T17:32:11.887Z,100346.25
2023-05-05T17:34:38.648Z,100356.63
2023-05-05T17:37:06.500Z,100353.34
2023-05-05T17:39:33.095Z,100357.34
2023-05-05T17:41:59.591Z,100360.69
2023-05-05T17:44:26.040Z,100359.22
2023-05-05T17:46:52.670Z,100362.13
2023-05-05T17:49:19.281Z,100362.84
2023-05-05T17:51:45.883Z,100366.69
2023-05-05T17:54:12.449Z,100370.41
2023-05-05T17:56:38.985Z,100361.63
2023-05-05T17:59:05.482Z,100361.63
2023-05-05T18:01:32.055Z,100363.53
2023-05-05T18:03:58.674Z,100362.13
2023-05-05T18:06:25.737Z,100362.59
2023-05-05T18:08:52.870Z,100361.28
2023-05-05T18:11:21.315Z,100366.91
2023-05-05T18:16:43.736Z,100363.41
2023-05-05T18:19:10.333Z,100365.53
2023-05-05T18:21:36.802Z,100363.34
2023-05-05T18:24:18.220Z,100370.31
2023-05-05T18:26:53.002Z,100367.66
2023-05-05T18:29:23.909Z,100373.34
2023-05-05T18:31:52.845Z,100377.19
2023-05-05T18:34:20.646Z,100371.16
2023-05-05T18:36:48.008Z,100366.84
2023-05-05T18:39:14.876Z,100373.09
2023-05-05T18:41:41.410Z,100370.78
2023-05-05T18:44:08.211Z,100369.00
2023-05-05T18:46:34.822Z,100374.72
2023-05-05T18:49:01.724Z,100373.56
2023-05-05T18:51:28.525Z,100379.81
2023-05-05T18:53:55.159Z,100377.31
2023-05-05T18:56:21.713Z,100377.72
2023-05-05T18:58:48.616Z,100380.78
2023-05-05T19:01:16.045Z,100395.78
2023-05-05T19:03:46.273Z,100392.31
2023-05-05T19:06:12.909Z,100396.84
2023-05-05T19:08:39.489Z,100399.91
2023-05-05T19:11:06.326Z,100405.66
2023-05-05T19:13:32.743Z,100404.06
2023-05-05T19:15:59.425Z,100408.84
2023-05-05T19:18:26.738Z,100410.63
2023-05-05T19:20:53.174Z,100425.94
2023-05-05T19:23:19.595Z,100421.31
2023-05-05T19:25:46.437Z,100425.63
2023-05-05T19:28:12.905Z,100432.84
2023-05-05T19:30:39.332Z,100434.59
2023-05-05T19:33:06.043Z,100433.66
2023-05-05T19:35:32.582Z,100434.16
2023-05-05T19:38:02.090Z,100429.72
2023-05-05T19:40:34.380Z,100441.69
2023-05-05T19:43:03.339Z,100443.28
2023-05-05T19:45:33.742Z,100446.31
2023-05-05T19:48:01.404Z,100442.72
2023-05-05T19:50:30.208Z,100440.28
2023-05-05T19:52:57.186Z,100437.44
2023-05-05T19:55:24.363Z,100439.25
2023-05-05T19:57:50.855Z,100441.69
2023-05-05T20:00:18.322Z,100438.75
2023-05-05T20:02:45.231Z,100447.19
2023-05-05T20:05:13.979Z,100446.47
2023-05-05T20:07:41.914Z,100449.53
2023-05-05T20:10:09.549Z,100440.94
2023-05-05T20:12:36.328Z,100450.34
2023-05-05T20:15:03.179Z,100449.09
2023-05-05T20:17:29.663Z,100449.13
2023-05-05T20:19:57.569Z,100442.81
2023-05-05T20:22:26.542Z,100442.91
2023-05-05T20:24:53.517Z,100441.97
2023-05-05T20:27:21.002Z,100439.13
2023-05-05T20:29:48.111Z,100440.38
2023-05-05T20:32:15.699Z,100435.38
2023-05-05T20:34:42.208Z,100452.94
2023-05-05T20:37:09.161Z,100445.88
2023-05-05T20:39:36.542Z,100450.94
2023-05-05T20:42:03.205Z,100447.69
2023-05-05T20:44:29.903Z,100450.00
2023-05-05T20:46:56.401Z,100460.06
2023-05-05T20:49:22.880Z,100452.53
2023-05-05T20:51:49.533Z,100454.56
2023-05-05T20:54:16.019Z,100455.03
2023-05-05T20:56:42.644Z,100452.41
2023-05-05T20:59:09.527Z,100461.84
2023-05-05T21:01:36.129Z,100466.47
2023-05-05T21:04:02.769Z,100482.97
2023-05-05T21:06:29.415Z,100482.88
2023-05-05T21:08:56.215Z,100483.31
2023-05-05T21:11:22.688Z,100474.84
2023-05-05T21:13:49.180Z,100467.50
2023-05-05T21:16:16.118Z,100473.03
2023-05-05T21:18:46.516Z,100473.53
2023-05-05T21:21:13.250Z,100466.94
2023-05-05T21:23:39.818Z,100474.66
2023-05-05T21:26:06.371Z,100467.69
2023-05-05T21:28:32.849Z,100468.06
2023-05-05T21:31:20.336Z,100474.47
2023-05-05T21:33:46.308Z,100471.28
2023-05-05T21:36:15.130Z,100475.28
2023-05-05T21:38:41.712Z,100470.13
2023-05-05T21:41:08.349Z,100469.75
2023-05-05T21:43:35.015Z,100469.00
2023-05-05T21:46:02.831Z,100471.16
2023-05-05T21:48:30.993Z,100467.66
2023-05-05T21:50:57.646Z,100470.41
2023-05-05T21:53:24.136Z,100470.75
2023-05-05T21:55:50.932Z,100478.94
2023-05-05T21:58:17.423Z,100476.09
2023-05-05T22:00:44.906Z,100488.75
2023-05-05T22:03:11.511Z,100491.13
2023-05-05T22:05:38.241Z,100482.69
2023-05-05T22:08:04.700Z,100479.13
2023-05-05T22:10:31.244Z,100486.13
2023-05-05T22:13:00.594Z,100489.13
2023-05-05T22:15:32.618Z,100482.13
2023-05-05T22:18:02.637Z,100490.91
2023-05-05T22:20:29.632Z,100487.69
2023-05-05T22:22:56.501Z,100488.47
2023-05-05T22:25:23.268Z,100479.47
2023-05-05T22:27:49.801Z,100490.91
2023-05-05T22:30:16.193Z,100486.84
2023-05-05T22:32:43.478Z,100493.22
2023-05-05T22:35:10.358Z,100497.34
2023-05-05T22:37:37.217Z,100501.03
2023-05-05T22:40:04.168Z,100492.06
2023-05-05T22:42:30.974Z,100492.06
2023-05-05T22:44:57.591Z,100495.69
2023-05-05T22:47:24.045Z,100497.47
2023-05-05T22:49:50.972Z,100496.72
2023-05-05T22:52:17.888Z,100493.16
2023-05-05T22:54:44.386Z,100492.22
2023-05-05T22:57:10.916Z,100488.47
2023-05-05T22:59:37.549Z,100500.47
2023-05-05T23:02:04.238Z,100506.81
2023-05-05T23:04:30.747Z,100504.94
2023-05-05T23:06:57.603Z,100494.59
2023-05-05T23:09:24.152Z,100498.53
2023-05-05T23:11:50.741Z,100499.28
2023-05-05T23:14:19.461Z,100483.38
2023-05-05T23:16:46.361Z,100489.78
2023-05-05T23:19:13.696Z,100499.03
2023-05-05T23:21:51.984Z,100506.47
2023-05-05T23:24:20.538Z,100502.34
2023-05-05T23:26:46.975Z,100496.47
2023-05-05T23:29:13.390Z,100494.81
2023-05-05T23:31:39.908Z,100496.66
2023-05-05T23:34:06.579Z,100501.59
2023-05-05T23:36:33.239Z,100498.88
2023-05-05T23:38:59.766Z,100499.44
2023-05-05T23:41:26.491Z,100498.97
2023-05-05T23:43:52.996Z,100486.06
2023-05-05T23:46:19.550Z,100487.69
2023-05-05T23:48:46.017Z,100490.56
2023-05-05T23:51:12.462Z,100488.09
2023-05-05T23:53:39.179Z,100490.81
2023-05-05T23:56:06.064Z,100483.38
2023-05-05T23:58:32.696Z,100478.50
